Nearby METAR Reports

 

KORH - Worcester, Massachusetts, USA
Distance from station: NW 4mi, 7km
Updated: Thu, 28-May-2020 12:54am EDT
Partly cloudy
Partly cloudy
 Wind from WSW
Wind: WSW 10 mph , 17 km/h
Temperature: 64°F , 18°C
Dew Point: 61°F , 16°C
Humidity: 88%
Barometer: 30.22 inHg , 1023.4 hPa
Clouds: Partly cloudy
Visibility: 10 miles , 16 km
Cloud details: Partly cloudy 800 ft
2020/05/28 04:54 KORH 280454Z 24009KT 10SM SCT008 18/16 A3022 RMK AO2 SLP230 T01830161 402830156
KBOS - Boston, Massachusetts, USA
Distance from station: ENE 42mi, 68km
Updated: Thu, 28-May-2020 12:54am EDT
Mostly cloudy
Mostly cloudy
 Wind from SSW
Wind: SSW 12 mph , 19 km/h
Temperature: 64°F , 18°C
Dew Point: 63°F , 17°C
Humidity: 94%
Barometer: 30.20 inHg , 1022.7 hPa
Clouds: Mostly cloudy
Visibility: 10 miles , 16 km
Cloud details: Few Clouds 500 ft
Few Clouds 15000 ft
Mostly cloudy 25000 ft
2020/05/28 04:54 KBOS 280454Z 21010KT 10SM FEW005 FEW150 BKN250 18/17 A3020 RMK AO2 SLP227 T01830167 402830156
 
KCQX - Chatham, Massachusetts, USA
Distance from station: SE 102mi, 164km
Updated: Thu, 28-May-2020 12:52am EDT
Fog, Overcast
Fog, Overcast
 Wind from SW
Wind: SW 5 mph , 7 km/h
Temperature: 59°F , 15°C
Dew Point: 57°F , 14°C
Humidity: 94%
Barometer: 30.26 inHg , 1024.7 hPa
Summary: Fog
Clouds: Overcast
Visibility: 1/2 mile , 0.8 km
Cloud details: Overcast 200 ft
2020/05/28 04:52 KCQX 280452Z AUTO 22004KT 1/2SM FG VV002 15/14 A3026 RMK AO2 SLP247 T01500144 402170133
KMVY - Marthas Vineyard, Massachusetts, USA
Distance from station: SE 84mi, 135km
Updated: Thu, 28-May-2020 12:53am EDT
Mist, Overcast
Mist, Overcast
 Wind from SSW
Wind: SSW 10 mph , 17 km/h
Temperature: 63°F , 17°C
Dew Point: 61°F , 16°C
Humidity: 94%
Barometer: 30.25 inHg , 1024.4 hPa
Summary: Mist
Clouds: Overcast
Visibility: 1 mile , 2 km
Cloud details: Overcast 200 ft
2020/05/28 04:53 KMVY 280453Z AUTO 21009KT 1SM R24/3500VP6000FT BR VV002 17/16 A3025 RMK AO2 SLP243 T01670161 402170139
 
KPVC - Provincetown, Massachusetts, USA
Distance from station: NNW 85mi, 136km
Updated: Thu, 28-May-2020 1:03am EDT
Mist, Overcast
Mist, Overcast
 Wind from S
Wind: S 8 mph , 13 km/h
Temperature: 61°F , 16°C
Dew Point: 61°F , 16°C
Humidity: 100%
Barometer: 30.24 inHg , 1024 hPa
Summary: Mist
Clouds: Overcast
Visibility: 1 mile , 2 km
Cloud details: Overcast 300 ft
2020/05/28 05:03 KPVC 280503Z AUTO 19007KT 1SM BR OVC003 16/16 A3024 RMK AO2
KAQW - Savoy, Massachusetts, USA
Distance from station: NNW 66mi, 106km
Updated: Thu, 28-May-2020 12:52am EDT
Clear
Clear
 Wind from calm
Wind: Calm
Temperature: 66°F , 19°C
Dew Point: 61°F , 16°C
Humidity: 83%
Barometer: 30.19 inHg , 1022.4 hPa
Clouds: Clear
Visibility: 10 miles , 16 km
2020/05/28 04:52 KAQW 280452Z AUTO 00000KT 10SM CLR 19/16 A3019 RMK AO2 SLP219 T01940161 403060161
 
KIZG - Fryeburg, Maine, USA
Distance from station: NNE 133mi, 214km
Updated: Thu, 28-May-2020 12:54am EDT
Clear
Clear
 Wind from calm
Wind: Calm
Temperature: 72°F , 22°C
Dew Point: 59°F , 15°C
Humidity: 65%
Barometer: 30.12 inHg , 1020 hPa
Clouds: Clear
Visibility: 10 miles , 16 km
2020/05/28 04:54 KIZG 280454Z AUTO 00000KT 10SM CLR 22/15 A3012 RMK AO2 SLP198 T02170150 403560133
KMWN - Mt Washington, New Hampshire, USA
Distance from station: NNE 146mi, 234km
Updated: Thu, 28-May-2020 12:54am EDT
Mostly cloudy
Mostly cloudy
 Wind from SSE
Wind: SSE 12 mph , 19 km/h
Temperature: 59°F , 15°C
Dew Point: 41°F , 5°C
Humidity: 51%
Clouds: Mostly cloudy
Visibility: 60 miles , 96 km
Cloud details: Few Clouds 2000 ft
Mostly cloudy 6000 ft
Mostly cloudy 10000 ft
Mostly cloudy 14000 ft
Mostly cloudy 18000 ft
2020/05/28 04:54 KMWN 280454Z 15010KT 60SM FEW020 BKN060 BKN100 BKN140 BKN180 15/05 RMK 401910133
 
KBML - Berlin, New Hampshire, USA
Distance from station: NNE 160mi, 257km
Updated: Thu, 28-May-2020 12:52am EDT
Clear
Clear
 Wind from calm
Wind: Calm
Temperature: 63°F , 17°C
Dew Point: 61°F , 16°C
Humidity: 94%
Barometer: 30.14 inHg , 1020.7 hPa
Clouds: Clear
Visibility: 10 miles , 16 km
2020/05/28 04:52 KBML 280452Z AUTO 00000KT 10SM CLR 17/16 A3014 RMK AO2 SLP199 T01720156 403500122 $